Time;durP1;ratioP1;P1;durP2;ratioP2;P2;SDS_P1;SDS_P2;PMS_P1;PMS_P2;Temp;Humidity;BMP_temperature;BMP_pressure;BME280_temperature;BME280_humidity;BME280_pressure;Samples;Min_cycle;Max_cycle;Signal;HPM_P1;HPM_P2
2020/12/01 00:02:08;;;;;;;0.40;0.30;;;;;;;3.72;80.57;100987.09;5032447;28;20438;-71
2020/12/01 00:04:34;;;;;;;0.80;0.50;;;;;;;3.73;80.52;100988.72;5036085;28;20804;-70
2020/12/01 00:07:00;;;;;;;1.03;0.93;;;;;;;3.74;80.59;100982.28;5036501;28;20486;-72
2020/12/01 00:09:27;;;;;;;0.57;0.40;;;;;;;3.72;79.94;100976.38;5036170;28;20548;-70
2020/12/01 00:11:54;;;;;;;0.70;0.70;;;;;;;3.74;79.89;100976.94;5036420;28;20489;-72
2020/12/01 00:14:20;;;;;;;1.23;0.70;;;;;;;3.69;81.05;100976.06;5036470;28;20556;-71
2020/12/01 00:16:46;;;;;;;1.57;0.70;;;;;;;3.70;80.70;100970.44;5036065;28;20533;-71
2020/12/01 00:19:13;;;;;;;0.40;0.40;;;;;;;3.72;80.66;100967.53;5035911;28;20517;-69
2020/12/01 00:21:39;;;;;;;0.80;0.60;;;;;;;3.77;79.98;100976.44;5036298;28;20474;-72
2020/12/01 00:24:06;;;;;;;0.40;0.40;;;;;;;3.81;80.46;100974.09;5036218;28;20536;-71
2020/12/01 00:26:33;;;;;;;1.57;0.70;;;;;;;3.87;80.54;100975.78;5036047;28;21001;-70
2020/12/01 00:28:59;;;;;;;0.50;0.40;;;;;;;3.85;81.06;100972.53;5036030;28;20489;-71
2020/12/01 00:31:25;;;;;;;0.80;0.60;;;;;;;3.92;79.85;100972.34;5035829;28;20513;-71
2020/12/01 00:33:51;;;;;;;1.90;1.03;;;;;;;3.87;80.05;100969.63;5035786;28;20432;-71
2020/12/01 00:36:18;;;;;;;0.83;0.80;;;;;;;3.86;80.42;100962.63;5036045;28;20439;-70
2020/12/01 00:38:44;;;;;;;0.40;0.40;;;;;;;3.89;79.82;100964.81;5035844;28;20483;-71
2020/12/01 00:41:13;;;;;;;1.03;0.67;;;;;;;3.84;80.34;100959.38;5035877;28;20847;-71
2020/12/01 00:43:40;;;;;;;0.50;0.43;;;;;;;3.77;80.61;100955.03;5035542;28;20496;-70
2020/12/01 00:46:06;;;;;;;0.80;0.50;;;;;;;3.86;80.79;100955.41;5035486;28;20443;-70
2020/12/01 00:48:32;;;;;;;0.93;0.93;;;;;;;3.84;79.66;100956.69;5035422;28;21024;-70
2020/12/01 00:50:58;;;;;;;0.90;0.53;;;;;;;3.84;80.05;100959.38;5035459;28;20955;-71
2020/12/01 00:53:25;;;;;;;0.60;0.50;;;;;;;3.80;79.85;100943.78;5035678;28;20443;-70
2020/12/01 00:55:51;;;;;;;0.40;0.40;;;;;;;3.83;80.09;100949.72;5035641;28;20490;-70
2020/12/01 00:58:18;;;;;;;0.40;0.30;;;;;;;3.87;80.37;100953.53;5035118;28;20491;-71
2020/12/01 01:00:45;;;;;;;0.40;0.30;;;;;;;3.81;79.86;100939.25;5035569;28;20501;-70
2020/12/01 01:03:11;;;;;;;0.70;0.60;;;;;;;3.81;79.76;100939.25;5035481;28;20439;-71
2020/12/01 01:05:37;;;;;;;2.40;1.17;;;;;;;3.86;79.74;100941.19;5035207;28;20501;-70
2020/12/01 01:08:03;;;;;;;5.20;0.90;;;;;;;3.91;79.58;100933.22;5035354;28;20451;-71
2020/12/01 01:10:33;;;;;;;1.93;0.80;;;;;;;3.90;79.56;100936.97;5035364;28;20520;-71
2020/12/01 01:12:59;;;;;;;0.40;0.40;;;;;;;3.87;79.15;100940.13;5035312;28;20435;-72
2020/12/01 01:15:30;;;;;;;0.50;0.40;;;;;;;3.90;78.92;100931.63;5034655;28;20855;-71
2020/12/01 01:17:58;;;;;;;7.80;1.63;;;;;;;3.88;78.35;100929.16;5034916;28;20586;-70
2020/12/01 01:20:24;;;;;;;1.30;1.23;;;;;;;3.87;77.19;100934.78;5034941;28;20927;-70
2020/12/01 01:22:51;;;;;;;0.40;0.40;;;;;;;3.86;77.27;100939.34;5034824;28;21011;-70
2020/12/01 01:25:17;;;;;;;0.40;0.33;;;;;;;3.89;78.13;100930.78;5035023;28;20474;-71
2020/12/01 01:27:45;;;;;;;0.67;0.47;;;;;;;3.88;78.10;100928.34;5034980;28;20889;-70
2020/12/01 01:30:14;;;;;;;0.50;0.50;;;;;;;3.89;78.10;100924.59;5034667;28;20455;-69
2020/12/01 01:32:40;;;;;;;0.40;0.30;;;;;;;3.88;78.30;100928.34;5035006;28;20443;-70
2020/12/01 01:35:08;;;;;;;0.60;0.60;;;;;;;3.80;77.78;100929.59;5034884;28;20439;-72
2020/12/01 01:37:34;;;;;;;0.67;0.60;;;;;;;3.84;78.12;100922.66;5034710;28;20584;-71
2020/12/01 01:40:00;;;;;;;1.70;1.07;;;;;;;3.83;78.42;100926.41;5034795;28;20439;-72
2020/12/01 01:42:26;;;;;;;0.60;0.50;;;;;;;3.80;78.08;100918.88;5034465;28;20867;-71
2020/12/01 01:44:53;;;;;;;2.40;1.33;;;;;;;3.85;78.43;100915.44;5034785;28;20439;-71
2020/12/01 01:47:22;;;;;;;0.40;0.30;;;;;;;3.87;78.50;100911.47;5034648;28;20441;-71
2020/12/01 01:49:53;;;;;;;1.50;1.30;;;;;;;3.83;78.90;100904.97;5034292;28;20451;-70
2020/12/01 01:52:25;;;;;;;2.00;0.60;;;;;;;3.88;78.15;100896.19;5034380;28;20900;-71
2020/12/01 01:54:56;;;;;;;0.40;0.30;;;;;;;3.83;78.75;100890.78;5034530;28;20423;-70
2020/12/01 01:57:22;;;;;;;1.03;0.70;;;;;;;3.80;79.04;100900.13;5034427;28;20502;-70
2020/12/01 01:59:50;;;;;;;1.10;1.10;;;;;;;3.76;79.51;100886.44;5034091;28;20440;-71
2020/12/01 02:02:16;;;;;;;2.33;1.70;;;;;;;3.86;78.95;100901.81;5034083;28;20470;-70
2020/12/01 02:04:42;;;;;;;3.60;1.27;;;;;;;3.85;78.91;100894.00;5034384;28;20505;-71
2020/12/01 02:07:08;;;;;;;0.83;0.83;;;;;;;3.82;78.86;100899.88;5034305;28;20434;-72
2020/12/01 02:09:42;;;;;;;1.13;1.13;;;;;;;3.83;78.91;100894.25;5034207;28;20463;-70
2020/12/01 02:12:09;;;;;;;0.50;0.50;;;;;;;3.82;79.02;100897.22;5034298;28;20494;-72
2020/12/01 02:14:38;;;;;;;0.70;0.70;;;;;;;3.80;79.38;100884.84;5033939;28;20443;-70
2020/12/01 02:17:18;;;;;;;1.37;1.27;;;;;;;3.78;79.64;100892.34;5034027;28;20483;-72
2020/12/01 02:19:45;;;;;;;0.70;0.57;;;;;;;3.83;78.92;100894.25;5033769;28;20991;-71
2020/12/01 02:22:14;;;;;;;1.13;0.70;;;;;;;3.72;78.20;100887.16;5034002;28;20439;-72
2020/12/01 02:24:41;;;;;;;0.50;0.50;;;;;;;3.74;78.44;100874.31;5033654;28;20443;-70
2020/12/01 02:27:10;;;;;;;1.60;1.40;;;;;;;3.83;78.41;100882.75;5033261;28;20439;-71
2020/12/01 02:29:37;;;;;;;1.93;1.17;;;;;;;3.83;78.64;100888.91;5033485;28;20525;-70
2020/12/01 02:32:05;;;;;;;0.70;0.70;;;;;;;3.85;78.30;100880.63;5033849;28;20439;-70
2020/12/01 02:34:34;;;;;;;1.33;0.83;;;;;;;3.84;77.84;100881.69;5033881;28;20466;-71
2020/12/01 02:37:02;;;;;;;0.40;0.33;;;;;;;3.79;78.48;100872.50;5033690;28;20539;-71
2020/12/01 02:39:28;;;;;;;0.40;0.30;;;;;;;3.84;78.29;100879.00;5033762;28;20467;-71
2020/12/01 02:41:56;;;;;;;1.20;1.20;;;;;;;3.79;78.74;100867.16;5033706;28;20444;-73
2020/12/01 02:44:24;;;;;;;3.80;1.20;;;;;;;3.77;79.00;100873.84;5033610;28;20493;-69
2020/12/01 02:46:50;;;;;;;4.90;1.20;;;;;;;3.78;78.66;100875.44;5033706;28;20490;-72
2020/12/01 02:49:16;;;;;;;2.23;1.40;;;;;;;3.78;79.31;100873.59;5033307;28;20471;-71
2020/12/01 02:51:42;;;;;;;1.57;0.60;;;;;;;3.85;79.40;100873.41;5033269;28;20447;-71
2020/12/01 02:54:08;;;;;;;1.77;1.67;;;;;;;3.88;79.53;100872.88;5033541;28;20450;-71
2020/12/01 02:56:35;;;;;;;0.60;0.60;;;;;;;3.91;79.55;100866.25;5033536;28;20435;-71
2020/12/01 02:59:01;;;;;;;0.90;0.90;;;;;;;3.89;79.47;100882.53;5033291;28;20906;-71
2020/12/01 03:01:28;;;;;;;9.53;2.10;;;;;;;3.89;79.33;100873.69;5033457;28;20471;-71
2020/12/01 03:03:54;;;;;;;1.27;1.17;;;;;;;3.87;80.01;100873.97;5033347;28;20439;-71
2020/12/01 03:06:21;;;;;;;0.90;0.90;;;;;;;3.87;80.10;100873.97;5033358;28;20443;-71
2020/12/01 03:08:48;;;;;;;2.80;1.80;;;;;;;3.88;79.74;100880.94;5033308;28;20455;-71
2020/12/01 03:11:15;;;;;;;0.50;0.40;;;;;;;3.90;79.89;100878.03;5033314;28;20467;-71
2020/12/01 03:13:41;;;;;;;0.40;0.30;;;;;;;3.91;80.01;100879.63;5033308;28;20859;-71
2020/12/01 03:16:08;;;;;;;8.53;1.33;;;;;;;3.84;81.31;100871.75;5033274;28;20476;-71
2020/12/01 03:18:36;;;;;;;0.40;0.30;;;;;;;3.94;79.80;100882.63;5033054;28;20491;-71
2020/12/01 03:21:02;;;;;;;2.50;1.03;;;;;;;3.90;79.71;100878.03;5033242;28;20521;-71
2020/12/01 03:23:29;;;;;;;2.10;0.70;;;;;;;3.93;79.25;100886.34;5033347;28;20918;-70
2020/12/01 03:25:55;;;;;;;1.10;0.50;;;;;;;3.96;79.08;100877.00;5032845;28;20874;-71
2020/12/01 03:28:21;;;;;;;1.70;0.97;;;;;;;3.91;79.25;100869.72;5033042;28;20541;-70
2020/12/01 03:30:48;;;;;;;6.03;1.90;;;;;;;3.85;80.21;100873.41;5033042;28;20471;-71
2020/12/01 03:33:14;;;;;;;0.40;0.30;;;;;;;3.86;80.23;100868.84;5032854;28;20446;-70
2020/12/01 03:35:41;;;;;;;5.83;1.67;;;;;;;3.86;80.06;100876.91;5032761;28;20987;-71
2020/12/01 03:38:07;;;;;;;3.80;1.53;;;;;;;3.89;80.33;100877.19;5035090;28;21003;-69
2020/12/01 03:40:33;;;;;;;1.70;1.07;;;;;;;3.92;80.39;100881.25;5036784;28;20960;-70
2020/12/01 03:42:59;;;;;;;0.83;0.83;;;;;;;3.83;79.56;100880.06;5037011;28;20443;-70
2020/12/01 03:45:26;;;;;;;1.80;1.70;;;;;;;3.88;80.79;100874.75;5036968;28;20438;-70
2020/12/01 03:47:54;;;;;;;1.60;1.50;;;;;;;3.93;80.85;100878.31;5036732;28;20515;-71
2020/12/01 03:50:21;;;;;;;2.87;0.97;;;;;;;3.94;81.52;100871.91;5031326;22;20496;-80
2020/12/01 03:52:48;;;;;;;0.90;0.60;;;;;;;3.98;81.42;100864.16;5019591;28;20957;-80
2020/12/01 03:57:42;;;;;;;0.40;0.40;;;;;;;4.05;82.28;100864.78;5033759;28;20490;-70
2020/12/01 04:00:09;;;;;;;0.97;0.97;;;;;;;4.09;82.51;100851.72;5036324;28;21068;-70
2020/12/01 04:02:35;;;;;;;1.33;0.97;;;;;;;4.06;82.61;100853.00;5036651;28;20470;-70
2020/12/01 04:05:02;;;;;;;0.70;0.53;;;;;;;4.09;82.11;100859.75;5036629;28;20469;-70
2020/12/01 04:07:28;;;;;;;3.73;1.63;;;;;;;4.10;81.68;100866.72;5036560;28;20508;-70
2020/12/01 04:09:57;;;;;;;4.90;1.57;;;;;;;4.07;81.60;100861.84;5036462;28;20466;-70
2020/12/01 04:12:23;;;;;;;0.83;0.80;;;;;;;4.07;82.07;100859.16;5036514;28;20447;-70
2020/12/01 04:14:49;;;;;;;0.60;0.50;;;;;;;4.00;83.36;100859.38;5036438;28;20446;-70
2020/12/01 04:17:15;;;;;;;7.17;2.20;;;;;;;3.95;83.23;100865.50;5036000;28;20483;-70
2020/12/01 04:19:42;;;;;;;4.00;2.83;;;;;;;3.97;83.31;100863.34;5036272;28;20879;-70
2020/12/01 04:22:09;;;;;;;0.47;0.47;;;;;;;3.92;83.53;100867.84;5036004;28;20451;-70
2020/12/01 04:24:35;;;;;;;1.13;0.60;;;;;;;3.84;84.24;100868.28;5035935;28;20777;-70
2020/12/01 04:27:02;;;;;;;1.80;1.03;;;;;;;3.85;84.65;100868.06;5036211;28;20462;-70
2020/12/01 04:29:29;;;;;;;2.40;1.60;;;;;;;3.84;84.70;100868.28;5035758;28;20967;-70
2020/12/01 04:31:55;;;;;;;1.73;1.17;;;;;;;3.84;84.83;100862.91;5036070;28;20489;-70
2020/12/01 04:34:21;;;;;;;0.53;0.53;;;;;;;3.82;85.26;100860.50;5036088;28;20848;-71
2020/12/01 04:36:47;;;;;;;0.90;0.90;;;;;;;3.82;85.30;100865.06;5035702;28;20443;-70
2020/12/01 04:39:14;;;;;;;1.83;1.73;;;;;;;3.79;85.62;100864.47;5035535;28;20544;-71
2020/12/01 04:41:40;;;;;;;0.60;0.60;;;;;;;3.81;85.39;100864.25;5035932;28;20434;-71
2020/12/01 04:44:20;;;;;;;1.30;1.20;;;;;;;3.83;85.11;100861.31;5035899;28;20501;-70
2020/12/01 04:46:48;;;;;;;0.93;0.93;;;;;;;3.85;85.89;100868.06;5035874;28;20796;-71
2020/12/01 04:49:22;;;;;;;2.30;0.77;;;;;;;3.87;85.88;100873.16;5035002;28;20467;-71
2020/12/01 04:52:14;;;;;;;1.27;1.17;;;;;;;3.86;86.40;100866.19;5035757;28;20415;-71
2020/12/01 04:55:19;;;;;;;15.83;3.20;;;;;;;3.86;86.59;100864.31;5035408;28;20507;-71
2020/12/01 04:58:01;;;;;;;4.47;1.93;;;;;;;3.92;86.36;100859.81;5035573;28;20490;-71
2020/12/01 05:00:35;;;;;;;1.17;0.50;;;;;;;3.91;86.23;100859.00;5035576;28;20459;-71
2020/12/01 05:03:25;;;;;;;1.67;1.40;;;;;;;3.96;85.67;100858.25;5035545;28;20474;-71
2020/12/01 05:06:05;;;;;;;6.13;3.43;;;;;;;3.91;86.33;100848.28;5035499;28;20529;-71
2020/12/01 05:08:45;;;;;;;2.00;1.17;;;;;;;3.90;86.28;100851.22;5035403;28;20423;-70
2020/12/01 05:11:30;;;;;;;1.00;1.00;;;;;;;3.85;86.47;100851.97;5035388;28;20430;-71
2020/12/01 05:14:02;;;;;;;1.67;1.57;;;;;;;3.83;86.40;100858.63;5035059;28;20952;-71
2020/12/01 05:16:46;;;;;;;0.73;0.60;;;;;;;3.80;86.66;100860.72;5035324;28;20427;-71
2020/12/01 05:19:38;;;;;;;1.33;1.23;;;;;;;3.72;86.34;100866.56;5035127;28;20609;-71
2020/12/01 05:22:04;;;;;;;2.73;0.70;;;;;;;3.75;86.11;100868.72;5035243;28;20481;-71
2020/12/01 05:24:38;;;;;;;0.40;0.40;;;;;;;3.79;86.10;100869.84;5035159;28;20446;-71
2020/12/01 05:27:04;;;;;;;0.70;0.70;;;;;;;3.72;86.32;100882.63;5035065;28;20435;-71
2020/12/01 05:29:30;;;;;;;1.07;0.60;;;;;;;3.70;86.61;100871.31;5034623;28;20463;-71
2020/12/01 05:31:57;;;;;;;1.70;1.03;;;;;;;3.73;86.55;100884.25;5034945;28;20475;-71
2020/12/01 05:34:23;;;;;;;0.60;0.60;;;;;;;3.73;86.57;100886.09;5034644;28;20868;-71
2020/12/01 05:36:52;;;;;;;0.40;0.40;;;;;;;3.76;86.76;100889.09;5034545;28;20474;-71
2020/12/01 05:39:21;;;;;;;0.60;0.60;;;;;;;3.79;86.29;100885.91;5034745;28;20487;-71
2020/12/01 05:41:59;;;;;;;3.70;1.17;;;;;;;3.80;86.22;100894.75;5034446;28;21070;-71
2020/12/01 05:44:28;;;;;;;12.63;2.00;;;;;;;3.83;86.28;100894.25;5034810;28;20451;-72
2020/12/01 05:47:01;;;;;;;1.90;1.40;;;;;;;3.85;86.31;100896.69;5034756;28;20439;-70
2020/12/01 05:49:35;;;;;;;1.97;1.27;;;;;;;3.88;86.15;100896.19;5034355;28;21035;-72
2020/12/01 05:52:04;;;;;;;2.10;1.90;;;;;;;3.91;85.96;100898.38;5034615;28;20437;-72
2020/12/01 05:54:35;;;;;;;1.07;1.00;;;;;;;3.90;85.82;100897.59;5034276;28;20781;-73
2020/12/01 05:57:01;;;;;;;0.70;0.67;;;;;;;3.91;85.67;100895.72;5034235;28;20459;-75
2020/12/01 05:59:27;;;;;;;3.07;2.30;;;;;;;3.87;85.19;100898.06;5033986;28;20557;-68
2020/12/01 06:02:00;;;;;;;0.40;0.40;;;;;;;3.88;85.52;100901.56;5033003;28;20947;-68
2020/12/01 06:04:28;;;;;;;4.67;1.07;;;;;;;3.89;85.98;100905.84;5034405;28;20435;-69
2020/12/01 06:07:12;;;;;;;2.20;1.03;;;;;;;3.92;85.53;100914.22;5033946;28;20928;-68
2020/12/01 06:10:13;;;;;;;1.27;1.17;;;;;;;3.90;86.26;100910.97;5034209;28;20463;-69
2020/12/01 06:13:04;;;;;;;1.37;0.87;;;;;;;3.92;85.57;100918.75;5034175;28;20493;-69
2020/12/01 06:15:32;;;;;;;2.10;1.17;;;;;;;3.91;85.54;100919.84;5034163;28;20848;-69
2020/12/01 06:18:05;;;;;;;4.20;1.77;;;;;;;3.92;85.10;100911.53;5033998;28;20478;-69
2020/12/01 06:20:39;;;;;;;0.83;0.83;;;;;;;3.93;84.99;100915.03;5033664;28;20478;-69
2020/12/01 06:23:26;;;;;;;16.60;2.20;;;;;;;3.90;85.15;100915.53;5034024;28;20466;-69
2020/12/01 06:26:31;;;;;;;1.13;1.03;;;;;;;3.84;84.80;100921.88;5033629;28;20461;-69
2020/12/01 06:29:36;;;;;;;0.60;0.50;;;;;;;3.85;85.18;100923.47;5010310;28;20474;-69
2020/12/01 06:32:23;;;;;;;0.83;0.83;;;;;;;3.83;85.50;100921.06;5020976;28;20896;-69
2020/12/01 06:35:22;;;;;;;3.60;1.90;;;;;;;3.78;85.19;100924.47;5033709;28;20416;-68
2020/12/01 06:38:10;;;;;;;4.10;2.83;;;;;;;3.77;85.60;100922.88;5033315;28;20999;-69
2020/12/01 06:40:43;;;;;;;1.80;0.93;;;;;;;3.77;85.33;100930.09;5033673;28;20545;-69
2020/12/01 06:43:14;;;;;;;4.50;3.47;;;;;;;3.82;85.51;100927.47;5033631;28;20863;-69
2020/12/01 06:45:47;;;;;;;1.60;1.50;;;;;;;3.91;85.41;100938.59;5033340;28;20954;-70
2020/12/01 06:48:18;;;;;;;1.27;1.00;;;;;;;3.95;85.01;100929.00;5033620;28;20429;-70
2020/12/01 06:50:48;;;;;;;3.73;2.00;;;;;;;3.86;85.83;100936.66;5033496;28;20510;-69
2020/12/01 06:53:25;;;;;;;2.20;1.30;;;;;;;3.90;85.35;100948.50;5033548;28;20431;-69
2020/12/01 06:55:54;;;;;;;1.03;1.03;;;;;;;3.93;85.61;100936.47;5033112;28;20461;-70
2020/12/01 06:58:38;;;;;;;1.90;1.30;;;;;;;3.94;85.04;100943.44;5033374;28;20539;-68
2020/12/01 07:01:09;;;;;;;0.70;0.60;;;;;;;3.90;85.71;100942.34;5033454;28;20477;-68
2020/12/01 07:03:36;;;;;;;2.17;1.20;;;;;;;3.88;85.87;100941.75;5033061;28;20505;-75
2020/12/01 07:06:17;;;;;;;2.00;1.90;;;;;;;3.92;85.14;100948.25;5032992;28;20787;-72
2020/12/01 07:08:44;;;;;;;1.20;1.00;;;;;;;3.82;85.64;100956.16;5032959;28;20972;-70
2020/12/01 07:11:14;;;;;;;2.07;1.50;;;;;;;3.86;85.06;100947.38;5032830;28;20500;-71
2020/12/01 07:13:48;;;;;;;0.90;0.70;;;;;;;3.86;84.98;100947.38;5032926;28;20516;-71
2020/12/01 07:16:27;;;;;;;0.57;0.57;;;;;;;3.87;85.58;100948.97;5032955;28;20430;-71
2020/12/01 07:18:58;;;;;;;0.70;0.67;;;;;;;3.90;85.67;100953.06;5032784;28;20485;-71
2020/12/01 07:21:38;;;;;;;3.83;2.30;;;;;;;3.94;85.55;100954.16;5033198;28;20847;-70
2020/12/01 07:24:16;;;;;;;0.70;0.70;;;;;;;3.99;84.57;100952.38;5032901;28;20476;-70
2020/12/01 07:26:47;;;;;;;0.40;0.40;;;;;;;3.99;85.22;100951.56;5032906;28;20431;-70
2020/12/01 07:29:29;;;;;;;0.83;0.60;;;;;;;4.01;85.66;100954.78;5033083;28;20513;-69
2020/12/01 07:32:11;;;;;;;1.00;0.60;;;;;;;4.09;84.84;100958.91;5032780;28;20905;-70
2020/12/01 07:34:37;;;;;;;1.03;1.03;;;;;;;4.09;83.16;100970.44;5033046;28;20469;-70
2020/12/01 07:37:33;;;;;;;1.63;1.33;;;;;;;4.12;83.52;100969.97;5032974;28;20439;-70
2020/12/01 07:40:01;;;;;;;6.30;2.00;;;;;;;4.17;83.96;100974.56;4987510;28;20470;-70
2020/12/01 07:42:32;;;;;;;0.90;0.90;;;;;;;4.22;83.94;100982.69;5032974;28;20863;-70
2020/12/01 07:44:58;;;;;;;1.80;1.70;;;;;;;4.28;83.58;100987.84;5032694;28;20979;-70
2020/12/01 07:47:27;;;;;;;1.33;0.63;;;;;;;4.25;82.53;100999.09;5032857;28;20445;-71
2020/12/01 07:49:58;;;;;;;2.20;1.63;;;;;;;4.27;82.95;100996.94;5032653;28;20887;-70
2020/12/01 07:52:31;;;;;;;4.90;1.27;;;;;;;4.26;82.58;100992.66;5032828;28;20504;-72
2020/12/01 07:55:04;;;;;;;0.87;0.87;;;;;;;4.25;83.20;100993.72;5032638;28;20901;-71
2020/12/01 07:57:30;;;;;;;1.27;0.50;;;;;;;4.21;82.97;101000.63;5032300;28;20459;-70
2020/12/01 07:59:59;;;;;;;4.53;0.97;;;;;;;4.24;83.70;101002.81;5032192;28;20462;-71
2020/12/01 08:02:27;;;;;;;2.40;1.10;;;;;;;4.26;83.11;100995.34;5032711;28;20446;-70
2020/12/01 08:05:06;;;;;;;4.73;1.07;;;;;;;4.29;83.20;100994.84;5032022;28;20471;-69
2020/12/01 08:07:35;;;;;;;7.83;3.30;;;;;;;4.33;83.26;100997.81;5032420;28;20897;-70
2020/12/01 08:10:05;;;;;;;2.70;2.50;;;;;;;4.26;83.36;100981.94;5032653;28;20474;-71
2020/12/01 08:12:35;;;;;;;4.90;2.70;;;;;;;4.26;83.62;100989.97;5032384;28;20459;-70
2020/12/01 08:15:03;;;;;;;0.50;0.50;;;;;;;4.24;83.97;100992.06;5032580;28;20940;-70
2020/12/01 08:17:31;;;;;;;0.40;0.40;;;;;;;4.28;83.94;100997.75;5032545;28;20439;-70
2020/12/01 08:19:58;;;;;;;1.63;1.53;;;;;;;4.32;84.37;100998.88;5032535;28;20536;-70
2020/12/01 08:22:30;;;;;;;0.40;0.30;;;;;;;4.39;83.77;101002.22;5032676;28;20797;-70
2020/12/01 08:25:01;;;;;;;2.70;2.10;;;;;;;4.43;84.17;101006.00;5034537;28;20569;-70
2020/12/01 08:27:32;;;;;;;1.87;1.17;;;;;;;4.46;83.27;101007.38;5036199;28;20518;-70
2020/12/01 08:30:00;;;;;;;0.60;0.50;;;;;;;4.51;83.12;101002.06;5035657;28;20980;-69
2020/12/01 08:32:36;;;;;;;5.70;2.67;;;;;;;4.55;82.79;101009.34;5036036;28;20446;-67
2020/12/01 08:35:10;;;;;;;2.87;2.53;;;;;;;4.54;82.94;101014.97;5035914;28;20500;-68
2020/12/01 08:37:47;;;;;;;2.80;2.00;;;;;;;4.52;83.03;101014.44;5035526;28;20469;-68
2020/12/01 08:40:21;;;;;;;1.00;1.00;;;;;;;4.48;82.97;101024.03;5035781;28;20865;-68
2020/12/01 08:43:22;;;;;;;0.50;0.50;;;;;;;4.52;83.36;101015.25;5035554;28;20423;-68
2020/12/01 08:46:03;;;;;;;1.30;1.30;;;;;;;4.56;82.60;101020.94;5021470;28;20879;-68
2020/12/01 08:48:38;;;;;;;1.40;1.27;;;;;;;4.60;83.14;101022.03;5035690;28;20419;-69
2020/12/01 08:51:17;;;;;;;1.03;0.87;;;;;;;4.69;82.54;101025.06;5035641;28;20431;-68
2020/12/01 08:53:48;;;;;;;1.90;0.60;;;;;;;4.80;82.15;101024.94;5035553;28;20466;-70
2020/12/01 08:56:30;;;;;;;2.33;2.13;;;;;;;4.91;81.88;101031.22;5035136;28;20804;-72
2020/12/01 08:59:03;;;;;;;0.70;0.60;;;;;;;5.07;81.58;101035.69;5035356;28;20559;-69
2020/12/01 09:01:38;;;;;;;1.90;1.80;;;;;;;5.22;81.46;101040.44;5035421;28;20488;-71
2020/12/01 09:04:17;;;;;;;3.63;1.17;;;;;;;5.20;80.19;101039.84;5035427;28;20433;-71
2020/12/01 09:06:44;;;;;;;0.40;0.30;;;;;;;5.20;79.79;101039.84;5035073;28;20916;-71
2020/12/01 09:09:19;;;;;;;3.30;1.23;;;;;;;5.19;80.30;101040.13;5035267;28;20510;-71
2020/12/01 09:12:10;;;;;;;3.83;2.70;;;;;;;5.23;80.25;101049.28;5035262;28;20427;-71
2020/12/01 09:17:32;;;;;;;1.23;1.13;;;;;;;5.43;79.87;101048.66;5026144;28;20446;-71
2020/12/01 09:20:20;;;;;;;11.63;1.77;;;;;;;5.47;78.27;101047.09;5034813;28;20979;-71
2020/12/01 09:22:47;;;;;;;5.53;3.10;;;;;;;5.48;78.50;101051.38;5035142;28;20829;-71
2020/12/01 09:25:25;;;;;;;2.47;1.50;;;;;;;5.43;78.29;101056.72;5034801;28;20866;-70
2020/12/01 09:27:52;;;;;;;3.50;1.73;;;;;;;5.25;78.11;101053.31;5034903;28;20427;-71
2020/12/01 09:30:28;;;;;;;3.73;2.30;;;;;;;5.23;79.51;101058.16;5034874;28;20552;-71
2020/12/01 09:32:55;;;;;;;0.50;0.40;;;;;;;5.26;79.64;101068.38;5034578;28;20411;-71
2020/12/01 09:35:22;;;;;;;0.90;0.90;;;;;;;5.30;79.30;101069.47;5034594;28;20435;-71
2020/12/01 09:37:48;;;;;;;0.50;0.40;;;;;;;5.26;79.97;101064.88;5034409;28;20931;-71
2020/12/01 09:40:15;;;;;;;0.50;0.40;;;;;;;5.35;80.28;101059.84;5034701;28;20883;-70
2020/12/01 09:42:43;;;;;;;2.10;1.50;;;;;;;5.37;79.35;101071.97;5034748;28;20856;-71
2020/12/01 09:45:24;;;;;;;1.07;0.97;;;;;;;5.38;78.56;101075.47;5034602;28;20477;-70
2020/12/01 09:47:56;;;;;;;0.60;0.60;;;;;;;5.38;78.53;101068.22;5034324;28;20457;-71
2020/12/01 09:50:27;;;;;;;3.03;0.80;;;;;;;5.29;77.96;101075.94;5035464;28;20466;-71
2020/12/01 09:55:55;;;;;;;0.70;0.50;;;;;;;5.26;78.53;101084.47;5026864;28;21011;-71
2020/12/01 09:58:46;;;;;;;0.40;0.30;;;;;;;5.28;79.31;101089.63;5034368;28;20470;-71
2020/12/01 10:09:44;;;;;;;0.70;0.50;;;;;;;5.22;79.07;101085.25;5033944;28;20533;-70
2020/12/01 10:12:22;;;;;;;1.73;1.23;;;;;;;5.13;78.71;101084.88;5033861;28;20959;-71
2020/12/01 10:17:55;;;;;;;2.40;1.37;;;;;;;5.07;79.56;101099.31;5033934;28;20792;-71
2020/12/01 10:34:41;;;;;;;2.00;1.90;;;;;;;4.90;79.78;101109.31;5009142;28;20448;-71
2020/12/01 10:37:07;;;;;;;1.40;1.30;;;;;;;4.96;80.11;101102.97;5033805;28;20442;-71
2020/12/01 10:39:34;;;;;;;3.20;1.10;;;;;;;4.93;79.86;101106.94;5033211;28;20490;-70
2020/12/01 10:42:05;;;;;;;1.03;0.57;;;;;;;4.88;79.69;101109.59;5033272;28;20486;-71
2020/12/01 10:44:31;;;;;;;1.03;1.03;;;;;;;4.87;79.94;101107.97;5033607;28;20420;-70
2020/12/01 10:46:58;;;;;;;1.03;1.03;;;;;;;4.93;80.03;101112.31;5032960;28;20478;-71
2020/12/01 10:49:24;;;;;;;3.90;1.30;;;;;;;5.00;80.22;101117.50;5033050;28;20485;-71
2020/12/01 10:51:50;;;;;;;2.20;1.90;;;;;;;4.97;79.64;101105.41;5033372;28;20467;-71
2020/12/01 10:54:17;;;;;;;1.73;0.93;;;;;;;5.02;79.51;101118.06;5032923;28;20862;-70
2020/12/01 10:56:47;;;;;;;1.90;1.13;;;;;;;4.99;79.97;101115.88;5032854;28;20447;-70
2020/12/01 10:59:13;;;;;;;0.70;0.53;;;;;;;5.06;80.63;101116.50;5032880;28;21008;-72
2020/12/01 11:01:39;;;;;;;8.10;2.20;;;;;;;5.20;80.46;101122.28;5032963;28;20941;-66
2020/12/01 11:04:05;;;;;;;1.13;1.03;;;;;;;5.28;79.98;101119.16;5025384;28;20796;-70
2020/12/01 11:06:32;;;;;;;0.43;0.40;;;;;;;5.37;79.63;101130.28;5017251;28;20444;-70
2020/12/01 11:08:58;;;;;;;1.33;1.00;;;;;;;5.39;79.24;101120.06;5013382;28;20490;-70
2020/12/01 11:11:24;;;;;;;1.23;0.87;;;;;;;5.48;79.08;101130.09;5027287;28;20535;-71
2020/12/01 11:13:51;;;;;;;1.10;0.60;;;;;;;5.47;78.71;101128.50;5033173;28;20442;-71
2020/12/01 11:16:18;;;;;;;5.80;1.20;;;;;;;5.53;77.97;101134.72;5014852;28;20948;-71
2020/12/01 11:18:44;;;;;;;6.37;1.70;;;;;;;5.52;78.44;101135.78;5032907;28;20863;-70
2020/12/01 11:21:10;;;;;;;2.30;2.10;;;;;;;5.55;78.40;101133.41;5033100;28;20951;-70
2020/12/01 11:23:36;;;;;;;1.23;0.93;;;;;;;5.56;79.02;101134.22;5033143;28;20513;-71
2020/12/01 11:26:03;;;;;;;3.33;3.13;;;;;;;5.67;78.99;101132.47;5033009;28;20505;-70
2020/12/01 11:28:29;;;;;;;0.83;0.83;;;;;;;5.71;77.97;101133.53;5032970;28;20833;-71
2020/12/01 11:30:57;;;;;;;3.23;0.90;;;;;;;5.74;77.28;101131.16;5033028;28;20482;-71
2020/12/01 11:33:23;;;;;;;2.50;2.30;;;;;;;5.78;76.04;101129.59;5032780;28;20504;-71
2020/12/01 11:35:49;;;;;;;3.50;2.97;;;;;;;5.83;76.37;101126.94;5033123;28;20443;-71
2020/12/01 11:38:16;;;;;;;1.83;1.53;;;;;;;5.89;75.98;101138.56;5032598;28;20537;-71
2020/12/01 11:40:42;;;;;;;1.20;1.13;;;;;;;5.88;75.90;101126.16;5032896;28;20532;-71
2020/12/01 11:43:08;;;;;;;5.30;1.83;;;;;;;5.91;76.52;101127.53;5032648;28;20431;-71
2020/12/01 11:45:34;;;;;;;1.73;1.27;;;;;;;5.88;76.29;101133.44;5032893;28;20860;-71
2020/12/01 11:48:01;;;;;;;2.73;0.70;;;;;;;5.83;76.66;101131.50;5032940;28;20486;-70
2020/12/01 11:50:27;;;;;;;7.93;3.60;;;;;;;5.84;76.70;101138.50;5032477;28;20452;-71
2020/12/01 11:52:54;;;;;;;3.27;1.93;;;;;;;5.81;75.54;101139.03;5032517;28;20474;-73
2020/12/01 11:55:20;;;;;;;1.73;1.40;;;;;;;5.88;75.88;101138.81;5032723;28;20493;-74
2020/12/01 11:57:46;;;;;;;0.40;0.40;;;;;;;5.81;76.32;101147.91;5033013;28;20504;-73
2020/12/01 12:00:18;;;;;;;1.37;1.27;;;;;;;5.79;76.42;101144.63;5036537;28;20519;-72
2020/12/01 12:02:44;;;;;;;5.10;2.10;;;;;;;5.76;76.47;101142.47;5036336;28;20893;-73
2020/12/01 12:05:11;;;;;;;2.90;1.27;;;;;;;5.83;76.77;101140.38;5036586;28;20495;-73
2020/12/01 12:07:37;;;;;;;1.57;0.97;;;;;;;5.88;76.68;101146.88;5036560;28;20449;-73
2020/12/01 12:10:04;;;;;;;0.60;0.40;;;;;;;5.94;76.67;101141.31;5036419;28;20455;-72
2020/12/01 12:12:30;;;;;;;1.27;1.03;;;;;;;6.06;76.13;101143.81;5036508;28;20484;-72
2020/12/01 12:14:56;;;;;;;1.70;0.97;;;;;;;6.05;75.18;101137.63;5036433;28;20505;-73
2020/12/01 12:17:23;;;;;;;5.60;3.37;;;;;;;6.03;76.03;101142.47;5036029;28;20466;-73
2020/12/01 12:19:49;;;;;;;2.80;1.60;;;;;;;6.07;76.59;101143.59;5036013;28;20576;-73
2020/12/01 12:22:16;;;;;;;2.30;0.97;;;;;;;6.03;76.57;101137.09;5036310;28;20496;-74
2020/12/01 12:24:42;;;;;;;5.13;2.33;;;;;;;6.14;76.50;101139.84;5036139;28;20857;-74